Time;durP1;ratioP1;P1;durP2;ratioP2;P2;SDS_P1;SDS_P2;PMS_P1;PMS_P2;Temp;Humidity;BMP_temperature;BMP_pressure;BME280_temperature;BME280_humidity;BME280_pressure;Samples;Min_cycle;Max_cycle;Signal;HPM_P1;HPM_P2
2022/01/18 00:01:29;;;;;;;14.60;9.13;;;;;;;-0.84;87.41;96639.84;4752809;30;20804;-74
2022/01/18 00:03:54;;;;;;;15.55;10.10;;;;;;;-0.83;87.08;96642.34;4753845;30;20528;-71
2022/01/18 00:06:19;;;;;;;15.98;10.55;;;;;;;-0.82;87.10;96649.25;4754090;30;20783;-74
2022/01/18 00:08:44;;;;;;;19.55;10.18;;;;;;;-0.82;87.28;96644.03;4754695;30;20521;-72
2022/01/18 00:11:09;;;;;;;16.15;10.10;;;;;;;-0.80;87.32;96649.16;4753974;30;20422;-71
2022/01/18 00:18:33;;;;;;;16.00;8.90;;;;;;;-0.79;86.95;96666.50;4738608;30;20047;-78
2022/01/18 00:23:33;;;;;;;14.38;9.00;;;;;;;-0.74;86.98;96683.53;4767115;29;20051;-71
2022/01/18 00:25:58;;;;;;;15.73;9.65;;;;;;;-0.73;87.05;96689.59;4768093;29;20051;-78
2022/01/18 00:28:25;;;;;;;17.73;10.82;;;;;;;-0.72;87.25;96691.25;4751838;30;20133;-75
2022/01/18 00:33:51;;;;;;;21.38;9.95;;;;;;;-0.71;86.95;96703.41;4752284;30;20455;-71
2022/01/18 00:36:23;;;;;;;16.05;10.35;;;;;;;-0.71;87.23;96707.78;4736312;30;20039;-73
2022/01/18 00:38:48;;;;;;;14.10;8.90;;;;;;;-0.70;87.26;96718.16;4767174;29;20131;-74
2022/01/18 00:41:15;;;;;;;14.93;9.57;;;;;;;-0.71;87.02;96724.31;4737285;30;20123;-71
2022/01/18 00:43:40;;;;;;;17.33;10.82;;;;;;;-0.71;86.88;96726.09;4754042;30;20043;-73
2022/01/18 00:46:06;;;;;;;15.75;10.10;;;;;;;-0.70;87.03;96725.16;4752612;30;20050;-77
2022/01/18 00:48:34;;;;;;;16.77;9.85;;;;;;;-0.70;87.09;96735.63;4738352;30;20047;-72
2022/01/18 00:50:59;;;;;;;14.05;8.93;;;;;;;-0.71;86.64;96737.41;4753995;29;20095;-74
2022/01/18 00:53:26;;;;;;;15.82;10.60;;;;;;;-0.72;86.95;96748.81;4754030;29;20644;-73
2022/01/18 00:56:07;;;;;;;17.35;11.00;;;;;;;-0.70;86.82;96757.38;4753178;30;20469;-71
2022/01/18 00:58:32;;;;;;;12.10;8.95;;;;;;;-0.67;86.62;96762.38;4751855;30;20150;-72
2022/01/18 01:00:57;;;;;;;16.55;9.68;;;;;;;-0.65;87.12;96764.88;4752320;30;20047;-71
2022/01/18 01:03:22;;;;;;;17.85;11.48;;;;;;;-0.64;87.00;96766.56;4753133;29;20739;-72
2022/01/18 01:05:46;;;;;;;18.13;11.45;;;;;;;-0.65;86.90;96778.78;4752794;30;20051;-74
2022/01/18 01:08:11;;;;;;;19.15;10.65;;;;;;;-0.67;87.23;96775.44;4752104;30;20511;-76
2022/01/18 01:10:36;;;;;;;19.45;11.77;;;;;;;-0.68;86.97;96779.03;4752911;30;20043;-74
2022/01/18 01:13:01;;;;;;;17.58;10.85;;;;;;;-0.67;87.06;96793.75;4752180;30;20055;-73
2022/01/18 01:15:28;;;;;;;21.52;12.30;;;;;;;-0.64;87.18;96797.94;4752063;30;20460;-72
2022/01/18 01:18:12;;;;;;;21.88;12.32;;;;;;;-0.62;87.21;96793.44;4753484;30;20062;-74
2022/01/18 01:37:00;;;;;;;20.02;12.55;;;;;;;-0.57;87.44;96831.44;4754449;29;20129;-74
2022/01/18 01:42:25;;;;;;;18.80;11.50;;;;;;;-0.60;87.70;96834.25;4753261;29;20047;-68
2022/01/18 01:44:51;;;;;;;16.00;10.18;;;;;;;-0.60;87.82;96851.72;4753010;29;20057;-68
2022/01/18 01:47:22;;;;;;;18.50;12.07;;;;;;;-0.63;87.77;96847.53;4752607;30;20047;-68
2022/01/18 01:49:50;;;;;;;19.77;11.80;;;;;;;-0.63;88.04;96859.78;4754142;29;20522;-68
2022/01/18 01:52:15;;;;;;;17.85;11.35;;;;;;;-0.65;87.99;96864.28;4752965;30;20363;-68
2022/01/18 01:54:40;;;;;;;17.75;11.73;;;;;;;-0.65;87.99;96874.75;4753140;29;20050;-68
2022/01/18 01:57:05;;;;;;;17.83;10.95;;;;;;;-0.65;87.94;96880.00;4752373;30;20047;-67
2022/01/18 01:59:30;;;;;;;16.90;10.77;;;;;;;-0.66;87.89;96873.91;4757415;29;20074;-67
2022/01/18 02:01:59;;;;;;;18.20;11.27;;;;;;;-0.64;87.74;96881.66;4751326;29;20090;-68
2022/01/18 02:04:24;;;;;;;18.98;10.77;;;;;;;-0.66;88.04;96887.00;4749891;30;20086;-67
2022/01/18 02:06:49;;;;;;;17.83;11.18;;;;;;;-0.67;87.79;96906.25;4753210;30;20071;-67
2022/01/18 02:09:14;;;;;;;16.58;10.48;;;;;;;-0.67;88.16;96900.19;4753864;30;20051;-66
2022/01/18 02:11:39;;;;;;;18.02;9.77;;;;;;;-0.67;88.36;96915.88;4749945;30;20043;-65
2022/01/18 02:14:06;;;;;;;16.20;9.68;;;;;;;-0.70;88.04;96914.34;4751820;29;20394;-65
2022/01/18 02:22:02;;;;;;;16.63;8.95;;;;;;;-0.75;88.07;96932.13;4752060;29;20051;-66
2022/01/18 02:24:27;;;;;;;12.18;7.75;;;;;;;-0.77;88.03;96941.84;4752224;30;20125;-66
2022/01/18 02:26:52;;;;;;;14.05;8.20;;;;;;;-0.79;88.07;96947.19;4752088;29;20130;-66
2022/01/18 02:29:17;;;;;;;13.95;7.70;;;;;;;-0.78;nan;96950.63;4750371;30;20085;-65
2022/01/18 02:31:42;;;;;;;10.75;6.47;;;;;;;-0.82;88.47;96977.97;4752249;29;20051;-67
2022/01/18 02:34:14;;;;;;;10.43;6.78;;;;;;;-0.86;88.13;96966.84;4752325;30;20047;-72
2022/01/18 02:36:39;;;;;;;10.75;7.07;;;;;;;-0.89;88.24;96979.28;4751525;30;20112;-72
2022/01/18 02:39:05;;;;;;;12.00;6.70;;;;;;;-0.90;87.90;96990.69;4753994;29;20053;-70
2022/01/18 02:41:31;;;;;;;11.38;6.63;;;;;;;-0.91;87.97;96999.50;4754848;29;20143;-72
2022/01/18 02:44:14;;;;;;;9.63;6.47;;;;;;;-0.86;87.96;97002.63;4753667;29;20135;-69
2022/01/18 02:46:41;;;;;;;8.93;5.85;;;;;;;-0.94;88.13;97003.16;4750959;29;20059;-70
2022/01/18 02:49:06;;;;;;;10.15;5.70;;;;;;;-0.93;87.84;97007.44;4750315;30;20535;-70
2022/01/18 02:51:32;;;;;;;11.30;6.53;;;;;;;-0.92;88.17;97013.53;4752967;29;20874;-71
2022/01/18 02:54:02;;;;;;;10.02;6.18;;;;;;;-0.92;87.82;97019.59;4751918;29;20059;-70
2022/01/18 02:56:51;;;;;;;11.15;5.88;;;;;;;-0.87;88.34;97037.56;4751568;30;20054;-65
2022/01/18 02:59:29;;;;;;;8.40;5.80;;;;;;;-0.91;88.21;97041.34;4751630;29;20571;-65
2022/01/18 03:04:40;;;;;;;11.48;6.53;;;;;;;-0.98;87.99;97050.53;4765414;29;20086;-66
2022/01/18 03:07:05;;;;;;;9.35;5.75;;;;;;;-0.97;88.01;97060.03;4751847;29;20058;-64
2022/01/18 03:09:31;;;;;;;9.10;5.70;;;;;;;-1.00;87.98;97049.78;4751910;29;20047;-63
2022/01/18 03:11:56;;;;;;;7.88;5.20;;;;;;;-1.01;87.68;97064.63;4765771;29;20582;-63
2022/01/18 03:14:21;;;;;;;9.57;5.50;;;;;;;-1.00;87.92;97074.16;4751875;30;20455;-64
2022/01/18 03:16:45;;;;;;;6.63;4.65;;;;;;;-0.99;88.06;97075.84;4765688;29;20104;-63
2022/01/18 03:19:11;;;;;;;10.13;5.53;;;;;;;-0.99;87.94;97075.00;4752127;29;20058;-67
2022/01/18 03:21:35;;;;;;;9.57;5.70;;;;;;;-1.01;88.19;97085.53;4735837;30;20055;-63
2022/01/18 03:24:13;;;;;;;7.38;5.00;;;;;;;-1.00;nan;97089.00;4751642;29;20058;-64
2022/01/18 03:29:23;;;;;;;;;;;;;;;-0.92;88.03;97108.50;4750991;30;20082;-64
2022/01/18 03:31:47;;;;;;;;;;;;;;;-0.89;87.96;97121.34;4750589;29;19957;-63
2022/01/18 03:34:12;;;;;;;6.27;4.00;;;;;;;-0.96;88.01;97121.88;4749933;29;20783;-64
2022/01/18 03:36:37;;;;;;;6.47;4.07;;;;;;;-0.95;88.40;97128.78;4756690;29;20134;-64
2022/01/18 03:39:02;;;;;;;6.72;4.18;;;;;;;-1.01;88.53;97139.63;4750179;29;20483;-64
2022/01/18 03:41:26;;;;;;;3.95;3.50;;;;;;;-1.02;88.68;97143.19;4750860;29;20047;-64
2022/01/18 03:43:53;;;;;;;6.63;4.20;;;;;;;-1.05;88.58;97153.84;4749812;29;20039;-65
2022/01/18 03:46:19;;;;;;;6.35;3.95;;;;;;;-1.07;88.71;97156.56;4750111;29;20051;-64
2022/01/18 03:48:50;;;;;;;7.40;3.80;;;;;;;-1.11;88.66;97162.91;4750221;30;20058;-64
2022/01/18 03:51:14;;;;;;;6.30;3.90;;;;;;;-1.08;88.26;97174.94;4748087;30;20043;-64
2022/01/18 03:53:39;;;;;;;5.95;3.58;;;;;;;-1.08;88.73;97178.41;4763958;29;20054;-64
2022/01/18 03:56:04;;;;;;;4.95;3.40;;;;;;;-1.10;88.52;97178.50;4750173;29;20410;-65
2022/01/18 03:58:30;;;;;;;7.72;4.15;;;;;;;-1.12;88.43;97190.81;4769461;29;20063;-63
2022/01/18 04:00:56;;;;;;;4.30;2.92;;;;;;;-1.12;88.59;97190.81;4751973;29;20110;-64
2022/01/18 04:03:21;;;;;;;4.72;3.42;;;;;;;-1.13;88.34;97193.56;4753466;29;20047;-63
2022/01/18 04:05:46;;;;;;;3.95;2.92;;;;;;;-1.13;88.59;97201.41;4757954;29;20411;-64
2022/01/18 04:08:11;;;;;;;5.05;3.10;;;;;;;-1.12;88.49;97198.66;4738209;30;20047;-68
2022/01/18 11:23:28;;;;;;;3.95;2.72;;;;;;;-4.19;85.76;98344.75;5077459;24;20158;-67
2022/01/18 11:25:58;;;;;;;5.90;3.22;;;;;;;-4.24;85.74;98357.91;4749520;29;20387;-67
2022/01/18 11:28:29;;;;;;;8.23;2.83;;;;;;;-4.23;86.04;98369.16;4751209;30;20138;-68
2022/01/18 11:30:54;;;;;;;4.90;2.65;;;;;;;-4.22;85.86;98366.53;4751321;30;20487;-67
2022/01/18 11:33:23;;;;;;;3.45;2.80;;;;;;;-4.27;85.95;98373.63;4751331;30;20215;-67
2022/01/18 11:36:06;;;;;;;5.35;4.68;;;;;;;-4.22;85.91;98373.47;4751211;29;20047;-67
2022/01/18 11:38:36;;;;;;;4.55;3.03;;;;;;;-4.25;86.11;98373.56;4751103;29;20051;-67
2022/01/18 11:41:04;;;;;;;5.60;3.30;;;;;;;-4.30;86.11;98378.94;4751034;30;20151;-67
2022/01/18 11:43:41;;;;;;;4.35;2.72;;;;;;;-4.28;86.14;98379.72;4749879;30;20631;-66
2022/01/18 11:46:26;;;;;;;3.92;2.60;;;;;;;-4.29;85.98;98400.59;4734984;30;20050;-67
2022/01/18 11:49:06;;;;;;;4.95;2.80;;;;;;;-4.30;85.80;98411.91;4734715;30;20384;-66
2022/01/18 11:51:48;;;;;;;5.18;3.10;;;;;;;-4.34;85.71;98421.56;4749909;30;20043;-68
2022/01/18 11:57:21;;;;;;;3.80;2.28;;;;;;;-4.27;85.81;98440.41;4749266;30;20109;-67
2022/01/18 11:59:49;;;;;;;3.08;2.53;;;;;;;-4.33;85.69;98445.81;4750732;29;20434;-67
2022/01/18 12:02:42;;;;;;;5.38;3.20;;;;;;;-4.32;86.07;98445.78;4734595;30;20062;-68
2022/01/18 12:05:19;;;;;;;4.40;2.83;;;;;;;-4.32;85.95;98460.53;4734339;30;20051;-65
2022/01/18 12:07:47;;;;;;;4.43;2.92;;;;;;;-4.34;86.13;98468.38;4750206;30;20047;-73
2022/01/18 12:10:31;;;;;;;4.43;2.58;;;;;;;-4.29;86.15;98466.50;4751990;30;20047;-78
2022/01/18 12:12:58;;;;;;;6.03;2.88;;;;;;;-4.35;86.16;98482.28;4737635;30;20371;-79
2022/01/18 12:15:23;;;;;;;5.25;3.10;;;;;;;-4.35;86.16;98487.47;4721710;30;20051;-67
2022/01/18 12:17:56;;;;;;;5.97;3.20;;;;;;;-4.33;86.23;98484.84;4751638;29;20043;-66
2022/01/18 12:20:44;;;;;;;6.20;3.00;;;;;;;-4.33;86.36;98477.88;4754398;29;20059;-71
2022/01/18 12:23:21;;;;;;;5.38;2.92;;;;;;;-4.31;86.15;98491.72;4752142;30;20063;-67
2022/01/18 12:26:13;;;;;;;4.82;2.80;;;;;;;-4.34;86.38;98489.19;4753185;30;20051;-68
2022/01/18 12:34:38;;;;;;;5.55;2.85;;;;;;;-4.29;86.78;98528.94;4752140;30;20050;-67
2022/01/18 12:37:40;;;;;;;6.63;3.38;;;;;;;-4.35;86.20;98523.06;4748942;30;20058;-67
2022/01/18 12:40:05;;;;;;;7.35;3.33;;;;;;;-4.34;86.16;98530.81;4752921;30;20430;-74
2022/01/18 12:45:15;;;;;;;5.15;3.25;;;;;;;-4.33;86.17;98548.13;4752571;30;20055;-76
2022/01/18 12:47:54;;;;;;;5.20;3.17;;;;;;;-4.32;85.91;98548.97;4753029;29;20062;-69
2022/01/18 12:50:23;;;;;;;4.93;2.95;;;;;;;-4.36;86.07;98552.56;4723446;30;20051;-64
2022/01/18 12:53:07;;;;;;;8.85;3.92;;;;;;;-4.35;86.56;98565.53;4752816;30;20130;-71
2022/01/18 12:55:45;;;;;;;5.63;3.50;;;;;;;-4.35;86.08;98567.28;4753763;30;20091;-72
2022/01/18 12:58:31;;;;;;;5.50;3.45;;;;;;;-4.41;85.62;98573.53;4753693;29;20054;-68
2022/01/18 13:01:01;;;;;;;6.78;3.50;;;;;;;-4.42;85.97;98584.81;4753423;29;20047;-70
2022/01/18 13:03:35;;;;;;;4.82;3.65;;;;;;;-4.41;86.41;98589.13;4753513;29;20503;-72
2022/01/18 13:06:03;;;;;;;5.68;3.05;;;;;;;-4.38;85.77;98596.81;4752201;30;20062;-71
2022/01/18 13:08:38;;;;;;;5.25;2.97;;;;;;;-4.34;86.59;98601.06;4752210;30;20047;-70
2022/01/18 13:11:03;;;;;;;4.90;3.22;;;;;;;-4.40;86.32;98612.47;4753294;29;20514;-69
2022/01/18 13:13:33;;;;;;;3.78;2.83;;;;;;;-4.44;85.84;98613.47;4752272;30;20807;-71
2022/01/18 13:27:14;;;;;;;6.15;3.80;;;;;;;-4.50;86.44;98654.38;4699973;30;20525;-71
2022/01/18 13:29:40;;;;;;;4.13;3.38;;;;;;;-4.50;86.69;98655.25;4714843;30;20149;-71
2022/01/18 13:32:16;;;;;;;5.22;3.67;;;;;;;-4.45;86.18;98652.53;4700738;30;20096;-71
2022/01/18 13:34:44;;;;;;;5.18;3.22;;;;;;;-4.41;86.43;98660.22;4700131;30;20126;-70
2022/01/18 13:37:23;;;;;;;8.07;4.28;;;;;;;-4.41;87.02;98656.75;4715346;30;20092;-71
2022/01/18 13:39:53;;;;;;;6.75;3.30;;;;;;;-4.46;86.55;98656.88;4715171;30;20052;-70
2022/01/18 13:42:21;;;;;;;7.40;2.67;;;;;;;-4.41;87.24;98659.38;4699911;30;20055;-69
2022/01/18 13:45:05;;;;;;;5.53;2.95;;;;;;;-4.40;86.73;98661.91;4715139;30;20699;-71
2022/01/18 13:47:52;;;;;;;3.55;2.47;;;;;;;-4.41;86.76;98670.63;4715053;30;20048;-71
2022/01/18 13:50:39;;;;;;;6.70;3.33;;;;;;;-4.33;87.10;98679.97;4703450;30;20060;-70
2022/01/18 13:53:27;;;;;;;5.22;3.28;;;;;;;-4.36;86.95;98688.69;4718509;30;20055;-70
2022/01/18 13:56:00;;;;;;;5.38;3.03;;;;;;;-4.46;86.85;98702.84;4704941;30;20052;-71
2022/01/18 13:58:39;;;;;;;4.63;3.90;;;;;;;-4.43;86.81;98707.97;4701102;30;20474;-71
2022/01/18 14:01:14;;;;;;;5.65;3.72;;;;;;;-4.47;86.88;98714.13;4701628;30;20435;-69
2022/01/18 14:03:50;;;;;;;5.97;3.40;;;;;;;-4.44;87.08;98704.50;4716724;30;20503;-71
2022/01/18 14:06:17;;;;;;;4.43;3.03;;;;;;;-4.52;86.49;98713.41;4751263;30;20047;-70
2022/01/18 14:08:45;;;;;;;5.75;3.35;;;;;;;-4.50;86.25;98720.25;4751070;30;20081;-70
2022/01/18 14:11:26;;;;;;;5.25;3.35;;;;;;;-4.48;87.25;98722.81;4737168;30;20050;-66
2022/01/18 14:13:54;;;;;;;5.00;2.97;;;;;;;-4.52;86.18;98745.47;4752497;30;20579;-67
2022/01/18 14:16:30;;;;;;;5.60;3.05;;;;;;;-4.54;86.54;98769.81;4752442;29;20104;-69
2022/01/18 14:19:06;;;;;;;4.35;3.05;;;;;;;-4.58;86.22;98773.38;4752264;30;20458;-68
2022/01/18 14:21:31;;;;;;;4.00;2.55;;;;;;;-4.62;86.30;98776.94;4752154;30;20055;-66
2022/01/18 14:24:19;;;;;;;4.47;2.92;;;;;;;-4.58;86.38;98786.38;4750931;30;20063;-68
2022/01/18 14:26:54;;;;;;;7.22;3.75;;;;;;;-4.63;86.47;98785.66;4753352;30;20096;-71
2022/01/18 14:29:23;;;;;;;5.97;3.53;;;;;;;-4.73;86.29;98787.59;4751389;30;20078;-71
2022/01/18 14:32:03;;;;;;;4.75;2.97;;;;;;;-4.72;86.66;98789.31;4736690;30;20051;-69
2022/01/18 14:34:34;;;;;;;5.38;2.97;;;;;;;-4.77;86.45;98791.19;4749910;30;20686;-70
2022/01/18 14:36:59;;;;;;;7.55;3.38;;;;;;;-4.86;86.16;98809.59;4752680;29;20130;-71
2022/01/18 14:39:25;;;;;;;3.63;2.75;;;;;;;-4.94;85.81;98799.34;4752453;29;20134;-70
2022/01/18 14:42:02;;;;;;;4.93;3.15;;;;;;;-4.90;86.12;98811.41;4751065;29;20522;-69
2022/01/18 14:47:25;;;;;;;;;;;;;;;-4.81;86.32;98813.78;4752636;30;20053;-68
2022/01/18 14:49:50;;;;;;;6.78;3.20;;;;;;;-4.91;86.08;98820.09;4765643;29;19926;-69
2022/01/18 14:52:15;;;;;;;5.50;3.65;;;;;;;-4.97;86.20;98824.56;4751692;30;20418;-68
2022/01/18 14:54:40;;;;;;;4.60;2.92;;;;;;;-4.99;86.20;98829.81;4751989;30;20414;-67
2022/01/18 14:57:09;;;;;;;6.40;3.88;;;;;;;-5.03;85.84;98837.69;4750866;30;20108;-68
2022/01/18 14:59:35;;;;;;;5.82;3.30;;;;;;;-5.06;85.74;98837.75;4750588;30;20074;-70
2022/01/18 15:02:02;;;;;;;9.35;3.55;;;;;;;-5.04;86.12;98835.97;4751599;29;20059;-70
2022/01/18 15:04:31;;;;;;;4.25;3.13;;;;;;;-5.04;85.75;98848.97;4750436;30;20096;-72
2022/01/18 15:07:07;;;;;;;5.55;3.58;;;;;;;-5.03;86.07;98861.09;4750547;30;20062;-69
2022/01/18 15:09:34;;;;;;;6.05;3.30;;;;;;;-5.05;85.92;98862.84;4750492;30;20055;-70
2022/01/18 15:12:04;;;;;;;5.70;3.13;;;;;;;-5.04;86.04;98867.16;4751753;30;20051;-71
2022/01/18 15:14:30;;;;;;;7.30;4.30;;;;;;;-5.09;85.72;98874.22;4751658;30;20117;-70
2022/01/18 15:16:56;;;;;;;6.88;3.05;;;;;;;-4.97;86.24;98867.03;4751721;30;20051;-71
2022/01/18 15:19:25;;;;;;;5.25;3.05;;;;;;;-4.94;86.37;98871.28;4751471;29;20208;-72
2022/01/18 15:21:54;;;;;;;4.88;3.03;;;;;;;-4.87;86.27;98873.72;4750436;30;20043;-71
2022/01/18 15:24:21;;;;;;;5.03;3.78;;;;;;;-4.90;85.71;98871.19;4750422;30;20071;-70
2022/01/18 15:26:46;;;;;;;6.07;3.85;;;;;;;-4.96;85.86;98891.22;4751711;29;20047;-67
2022/01/18 15:29:14;;;;;;;5.03;2.88;;;;;;;-5.05;85.81;98889.69;4751728;29;20073;-68
2022/01/18 15:31:40;;;;;;;6.53;3.97;;;;;;;-5.12;85.25;98901.97;4751497;30;20921;-68
2022/01/18 15:34:05;;;;;;;4.55;3.00;;;;;;;-5.18;85.62;98904.69;4750276;30;20562;-69
2022/01/18 15:36:33;;;;;;;6.20;3.90;;;;;;;-5.23;85.45;98916.91;4751808;29;20051;-68
2022/01/18 15:38:59;;;;;;;5.63;3.00;;;;;;;-5.16;85.85;98917.66;4750266;30;20054;-69
2022/01/18 15:41:28;;;;;;;6.88;2.97;;;;;;;-5.10;85.77;98921.88;4751755;30;20047;-71
2022/01/18 15:43:53;;;;;;;4.90;3.38;;;;;;;-5.16;86.14;98925.44;4750308;30;20051;-70
2022/01/18 15:46:18;;;;;;;10.55;4.13;;;;;;;-5.20;85.87;98947.19;4750450;30;20050;-71
2022/01/18 15:48:45;;;;;;;5.88;3.58;;;;;;;-5.23;85.74;98942.03;4735419;30;20055;-75
2022/01/18 15:51:10;;;;;;;5.72;3.50;;;;;;;-5.24;85.41;98954.19;4751381;30;20159;-70
2022/01/18 15:53:37;;;;;;;5.55;3.20;;;;;;;-5.22;86.08;98951.56;4737613;30;20051;-66
2022/01/18 15:56:02;;;;;;;5.32;3.17;;;;;;;-5.23;85.82;98961.09;4755499;30;20047;-69
2022/01/18 15:58:29;;;;;;;4.47;3.58;;;;;;;-5.25;85.45;98962.84;4753800;30;20049;-70
2022/01/18 16:00:54;;;;;;;5.47;3.80;;;;;;;-5.20;85.85;98974.03;4753787;30;20047;-72
2022/01/18 16:03:20;;;;;;;6.93;3.47;;;;;;;-5.21;85.70;98976.66;4754077;30;20130;-72
2022/01/18 16:05:46;;;;;;;5.43;3.03;;;;;;;-5.20;85.78;98988.75;4753998;30;20142;-69
2022/01/18 16:08:13;;;;;;;4.82;3.38;;;;;;;-5.17;85.66;98992.13;4754853;29;20047;-70
2022/01/18 16:10:41;;;;;;;4.05;2.63;;;;;;;-5.12;85.49;98992.91;4754823;30;20081;-71
2022/01/18 16:13:09;;;;;;;6.15;3.38;;;;;;;-5.10;85.80;98995.50;4753935;30;20050;-74
2022/01/18 16:15:36;;;;;;;4.68;3.35;;;;;;;-5.10;85.68;98997.22;4754068;30;20134;-73
2022/01/18 16:18:03;;;;;;;7.15;3.92;;;;;;;-5.08;85.97;99000.66;4753574;30;20134;-73
2022/01/18 16:20:29;;;;;;;5.53;3.60;;;;;;;-5.11;85.84;99011.97;4753797;30;20137;-73
2022/01/18 16:22:54;;;;;;;5.43;3.72;;;;;;;-5.11;85.82;99014.56;4754479;29;20396;-73
2022/01/18 16:25:26;;;;;;;6.03;3.40;;;;;;;-5.09;86.24;99023.19;4753764;30;20055;-73
2022/01/18 16:27:56;;;;;;;7.75;4.40;;;;;;;-5.11;85.84;99024.97;4754702;30;20051;-73
2022/01/18 16:30:23;;;;;;;6.72;4.20;;;;;;;-5.14;85.91;99028.47;4753476;30;20061;-73
2022/01/18 16:33:16;;;;;;;7.25;3.47;;;;;;;-5.06;85.71;99020.50;4753368;30;20096;-73
2022/01/18 16:35:42;;;;;;;5.82;3.17;;;;;;;-5.13;86.13;99035.38;4754942;30;20059;-72
2022/01/18 16:38:08;;;;;;;4.50;2.90;;;;;;;-5.04;85.81;99049.06;4738514;30;20047;-72
2022/01/18 16:40:40;;;;;;;5.70;3.05;;;;;;;-5.02;86.35;99039.50;4753141;30;20051;-73
2022/01/18 16:43:09;;;;;;;5.68;3.58;;;;;;;-5.10;86.20;99050.06;4754302;29;20137;-73
2022/01/18 16:45:36;;;;;;;5.18;3.72;;;;;;;-5.09;85.84;99054.38;4753542;30;20055;-71
2022/01/18 16:48:03;;;;;;;5.97;3.60;;;;;;;-5.18;85.87;99054.50;4753083;30;20047;-74
2022/01/18 16:50:30;;;;;;;5.80;3.47;;;;;;;-5.17;85.98;99057.09;4724408;30;20055;-73
2022/01/18 16:52:57;;;;;;;7.55;3.90;;;;;;;-5.18;85.94;99064.91;4753026;30;20051;-74
2022/01/18 16:55:24;;;;;;;5.75;3.30;;;;;;;-5.17;85.94;99066.63;4752474;30;20050;-73
2022/01/18 16:57:49;;;;;;;5.40;3.25;;;;;;;-5.19;85.93;99064.06;4767982;29;20262;-73
2022/01/18 17:00:18;;;;;;;6.68;4.13;;;;;;;-5.18;85.71;99072.72;4738621;30;20555;-73
2022/01/18 17:02:45;;;;;;;7.30;3.38;;;;;;;-5.19;86.13;99069.25;4752937;30;20055;-73
2022/01/18 17:05:12;;;;;;;5.47;3.45;;;;;;;-5.18;86.00;99070.09;4753285;29;20051;-73
2022/01/18 17:07:41;;;;;;;7.38;4.13;;;;;;;-5.23;85.83;99069.34;4752999;30;20050;-73
2022/01/18 17:10:13;;;;;;;7.90;4.15;;;;;;;-5.25;85.36;99079.75;4754145;30;20081;-74
2022/01/18 17:12:39;;;;;;;7.43;3.38;;;;;;;-5.22;85.62;99076.25;4738029;30;20058;-71
2022/01/18 17:15:05;;;;;;;6.10;3.63;;;;;;;-5.22;86.04;99076.25;4737946;30;20051;-72
2022/01/18 17:17:35;;;;;;;5.82;3.85;;;;;;;-5.21;85.67;99080.56;4738171;30;20434;-74
2022/01/18 17:20:30;;;;;;;5.38;3.67;;;;;;;-5.21;85.98;99085.78;4755081;30;20085;-73
2022/01/18 17:23:01;;;;;;;4.53;3.30;;;;;;;-5.23;85.71;99092.72;4754030;30;20055;-73
2022/01/18 17:25:27;;;;;;;5.40;3.47;;;;;;;-5.21;85.83;99090.97;4752970;30;20085;-74
2022/01/18 17:27:54;;;;;;;6.22;3.95;;;;;;;-5.22;85.97;99086.66;4753264;30;20529;-73
2022/01/18 17:30:21;;;;;;;8.98;3.83;;;;;;;-5.19;86.24;99099.59;4767668;29;20055;-74
2022/01/18 17:32:46;;;;;;;8.93;4.10;;;;;;;-5.17;86.01;99106.47;4753946;30;20829;-73
2022/01/18 17:35:13;;;;;;;6.50;3.70;;;;;;;-5.16;86.08;99105.59;4754027;30;20567;-71
2022/01/18 17:37:40;;;;;;;6.65;3.70;;;;;;;-5.14;85.89;99101.22;4754027;30;20758;-72
2022/01/18 17:40:06;;;;;;;6.05;4.22;;;;;;;-5.14;86.09;99113.34;4753906;29;20431;-72
2022/01/18 17:42:31;;;;;;;5.75;3.33;;;;;;;-5.12;85.75;99106.41;4737611;30;20050;-74
2022/01/18 17:44:57;;;;;;;5.47;3.28;;;;;;;-5.17;85.50;99126.38;4737679;30;20078;-73
2022/01/18 17:47:23;;;;;;;6.28;4.38;;;;;;;-5.18;86.35;99122.06;4767863;29;20903;-73
2022/01/18 17:49:48;;;;;;;4.47;2.80;;;;;;;-5.08;85.92;99121.06;4753520;30;20510;-72
2022/01/18 17:52:14;;;;;;;8.25;3.67;;;;;;;-5.17;85.84;99129.00;4753603;30;20084;-73
2022/01/18 17:54:40;;;;;;;6.03;3.42;;;;;;;-5.20;85.96;99129.06;4757147;29;20111;-72
2022/01/18 17:57:07;;;;;;;8.40;5.15;;;;;;;-5.26;86.07;99139.53;4756971;30;20043;-73
2022/01/18 17:59:33;;;;;;;6.07;3.60;;;;;;;-5.30;86.09;99135.25;4752880;30;20392;-74
2022/01/18 18:02:00;;;;;;;5.15;3.42;;;;;;;-5.30;86.13;99130.94;4767482;29;20080;-73
2022/01/18 18:04:26;;;;;;;6.82;4.45;;;;;;;-5.31;85.26;99131.84;4737766;30;20047;-73
2022/01/18 18:06:51;;;;;;;6.75;4.32;;;;;;;-5.33;85.96;99120.59;4752250;30;20089;-74
2022/01/18 18:09:20;;;;;;;9.02;4.57;;;;;;;-5.41;85.29;99121.59;4752082;30;20126;-72
2022/01/18 18:11:54;;;;;;;6.95;4.00;;;;;;;-5.39;85.52;99104.25;4752926;30;20050;-73
2022/01/18 18:14:19;;;;;;;6.43;4.07;;;;;;;-5.45;85.17;99102.63;4736303;30;20051;-71
2022/01/18 18:16:45;;;;;;;16.15;4.25;;;;;;;-5.46;84.55;99116.47;4751099;29;20087;-72
2022/01/18 18:19:10;;;;;;;6.40;3.83;;;;;;;-5.44;84.21;99119.06;4751355;30;20051;-73
2022/01/18 18:24:29;;;;;;;6.45;3.60;;;;;;;-5.25;84.59;99147.31;4736784;30;20055;-71
2022/01/18 18:27:00;;;;;;;10.63;6.05;;;;;;;-5.27;84.86;99158.59;4737029;30;20422;-73
2022/01/18 18:29:28;;;;;;;8.65;4.30;;;;;;;-5.26;85.33;99170.72;4736846;30;20056;-72
2022/01/18 18:32:03;;;;;;;7.47;4.25;;;;;;;-5.22;85.25;99177.59;4750912;30;20126;-72
2022/01/18 18:34:30;;;;;;;7.30;4.32;;;;;;;-5.21;85.62;99187.09;4750923;30;20051;-73
2022/01/18 18:36:58;;;;;;;7.40;4.20;;;;;;;-5.27;85.85;99189.78;4733723;30;20138;-72
2022/01/18 18:39:39;;;;;;;8.70;3.85;;;;;;;-5.25;85.24;99195.81;4750526;30;20078;-74
2022/01/18 18:44:44;;;;;;;4.30;3.05;;;;;;;-5.12;85.61;99187.81;4750076;30;20518;-73
2022/01/18 18:47:13;;;;;;;8.00;3.78;;;;;;;-5.17;86.33;99187.00;4750262;30;20054;-73
2022/01/18 18:49:40;;;;;;;7.10;3.60;;;;;;;-5.23;86.08;99188.84;4735251;30;20096;-72
2022/01/18 18:52:12;;;;;;;4.80;3.20;;;;;;;-5.28;86.02;99198.44;4750310;30;20069;-72
2022/01/18 18:54:38;;;;;;;4.50;3.10;;;;;;;-5.28;85.59;99204.50;4735671;30;20082;-73
2022/01/18 18:57:05;;;;;;;6.90;3.55;;;;;;;-5.29;85.70;99199.34;4720928;30;20457;-73
2022/01/18 18:59:55;;;;;;;3.92;2.78;;;;;;;-5.29;85.63;99202.78;4735230;30;20420;-73
2022/01/18 19:02:28;;;;;;;4.50;3.30;;;;;;;-5.31;85.49;99212.38;4751737;30;20047;-73
2022/01/18 19:04:55;;;;;;;4.65;2.97;;;;;;;-5.30;85.16;99210.59;4751247;29;20051;-73
2022/01/18 19:07:27;;;;;;;6.07;2.53;;;;;;;-5.26;85.39;99220.06;4749996;30;20055;-72
2022/01/18 19:09:54;;;;;;;5.97;3.72;;;;;;;-5.24;85.38;99224.38;4750082;30;20070;-73
2022/01/18 19:12:21;;;;;;;5.00;3.60;;;;;;;-5.21;85.01;99211.34;4750002;30;20400;-73
2022/01/18 19:14:51;;;;;;;8.25;3.50;;;;;;;-5.24;84.94;99215.72;4751438;30;20582;-73
2022/01/18 19:17:18;;;;;;;4.80;3.33;;;;;;;-5.16;85.17;99193.06;4750132;30;20403;-74
2022/01/18 19:19:45;;;;;;;4.05;2.72;;;;;;;-5.17;85.64;99191.34;4751368;30;20047;-75
2022/01/18 19:22:13;;;;;;;6.00;4.07;;;;;;;-5.19;85.57;99193.97;4751691;30;20059;-75
2022/01/18 19:25:06;;;;;;;7.72;3.33;;;;;;;-5.19;85.57;99204.38;4752334;30;20121;-72
2022/01/18 19:27:36;;;;;;;4.20;2.65;;;;;;;-5.32;85.71;99202.84;4736653;30;20039;-72
2022/01/18 19:30:05;;;;;;;4.65;3.40;;;;;;;-5.35;85.69;99218.47;4755169;29;20049;-72
2022/01/18 19:32:35;;;;;;;5.30;4.05;;;;;;;-5.40;85.41;99216.81;4753158;30;20087;-72
2022/01/18 19:35:04;;;;;;;5.15;3.65;;;;;;;-5.40;85.47;99229.81;4724108;30;20058;-73
2022/01/18 19:37:29;;;;;;;7.13;5.03;;;;;;;-5.46;85.32;99237.69;4755012;30;20051;-72
2022/01/18 19:39:55;;;;;;;4.45;2.88;;;;;;;-5.40;85.96;99242.78;4739276;30;20563;-75
2022/01/18 19:48:31;;;;;;;8.18;3.65;;;;;;;-5.52;85.41;99262.84;4754039;30;20109;-72
2022/01/18 19:50:58;;;;;;;11.35;3.97;;;;;;;-5.57;85.48;99282.84;4754181;30;20105;-72
2022/01/18 19:53:27;;;;;;;8.40;4.15;;;;;;;-5.69;84.32;99284.72;4740017;30;20919;-75
2022/01/18 19:55:55;;;;;;;7.10;3.85;;;;;;;-5.65;83.68;99289.00;4756613;29;20062;-74
2022/01/18 19:58:31;;;;;;;15.77;4.43;;;;;;;-5.74;82.56;99284.78;4756213;30;20059;-74
2022/01/18 20:00:58;;;;;;;4.80;3.53;;;;;;;-5.69;82.68;99276.94;4755932;29;20124;-73
2022/01/18 20:03:24;;;;;;;5.60;4.13;;;;;;;-5.68;82.99;99284.72;4755494;30;20055;-73
2022/01/18 20:05:53;;;;;;;16.83;5.95;;;;;;;-5.72;82.64;99274.38;4754973;30;20503;-76
2022/01/18 20:08:19;;;;;;;7.43;4.03;;;;;;;-5.81;81.46;99277.94;4756129;29;20103;-73
2022/01/18 20:10:49;;;;;;;4.05;3.35;;;;;;;-5.93;80.80;99285.91;4755263;30;20116;-74
2022/01/18 20:13:21;;;;;;;6.75;3.28;;;;;;;-5.84;81.24;99296.13;4740020;30;20046;-74